sensor_id;sensor_type;location;lat;lon;timestamp;P1;durP1;ratioP1;P2;durP2;ratioP2
67051;SDS011;53957;47.222;18.670;2023-01-13T00:01:04;16.98;;;9.38;;
67051;SDS011;53957;47.222;18.670;2023-01-13T00:04:11;14.43;;;9.00;;
67051;SDS011;53957;47.222;18.670;2023-01-13T00:07:14;13.82;;;8.93;;
67051;SDS011;53957;47.222;18.670;2023-01-13T00:10:18;12.57;;;9.88;;
67051;SDS011;53957;47.222;18.670;2023-01-13T00:13:21;11.70;;;9.55;;
67051;SDS011;53957;47.222;18.670;2023-01-13T00:16:28;19.02;;;10.00;;
67051;SDS011;53957;47.222;18.670;2023-01-13T00:19:31;16.27;;;10.45;;
67051;SDS011;53957;47.222;18.670;2023-01-13T00:22:34;11.98;;;9.40;;
67051;SDS011;53957;47.222;18.670;2023-01-13T00:25:37;13.73;;;9.50;;
67051;SDS011;53957;47.222;18.670;2023-01-13T00:28:40;16.05;;;10.20;;
67051;SDS011;53957;47.222;18.670;2023-01-13T00:31:43;15.15;;;11.05;;
67051;SDS011;53957;47.222;18.670;2023-01-13T00:34:46;16.95;;;10.25;;
67051;SDS011;53957;47.222;18.670;2023-01-13T00:37:49;14.93;;;10.57;;
67051;SDS011;53957;47.222;18.670;2023-01-13T00:40:59;12.25;;;9.20;;
67051;SDS011;53957;47.222;18.670;2023-01-13T00:44:03;15.07;;;10.27;;
67051;SDS011;53957;47.222;18.670;2023-01-13T00:47:07;11.52;;;9.15;;
67051;SDS011;53957;47.222;18.670;2023-01-13T00:50:09;9.60;;;8.23;;
67051;SDS011;53957;47.222;18.670;2023-01-13T00:53:12;11.07;;;9.07;;
67051;SDS011;53957;47.222;18.670;2023-01-13T00:56:17;13.68;;;9.00;;
67051;SDS011;53957;47.222;18.670;2023-01-13T00:59:40;12.63;;;8.60;;
67051;SDS011;53957;47.222;18.670;2023-01-13T01:02:42;12.65;;;8.32;;
67051;SDS011;53957;47.222;18.670;2023-01-13T01:05:46;14.43;;;8.77;;
67051;SDS011;53957;47.222;18.670;2023-01-13T01:08:50;10.80;;;9.05;;
67051;SDS011;53957;47.222;18.670;2023-01-13T01:11:54;16.30;;;8.70;;
67051;SDS011;53957;47.222;18.670;2023-01-13T01:14:57;12.80;;;8.02;;
67051;SDS011;53957;47.222;18.670;2023-01-13T01:17:59;13.77;;;8.43;;
67051;SDS011;53957;47.222;18.670;2023-01-13T01:21:03;11.85;;;8.80;;
67051;SDS011;53957;47.222;18.670;2023-01-13T01:24:08;11.90;;;8.48;;
67051;SDS011;53957;47.222;18.670;2023-01-13T01:27:11;9.52;;;8.25;;
67051;SDS011;53957;47.222;18.670;2023-01-13T01:30:14;8.85;;;7.90;;
67051;SDS011;53957;47.222;18.670;2023-01-13T01:33:16;10.35;;;8.02;;
67051;SDS011;53957;47.222;18.670;2023-01-13T01:36:20;13.05;;;8.68;;
67051;SDS011;53957;47.222;18.670;2023-01-13T01:39:24;8.93;;;7.80;;
67051;SDS011;53957;47.222;18.670;2023-01-13T01:42:27;10.60;;;7.80;;
67051;SDS011;53957;47.222;18.670;2023-01-13T01:45:48;10.15;;;7.82;;
67051;SDS011;53957;47.222;18.670;2023-01-13T01:48:55;11.07;;;7.85;;
67051;SDS011;53957;47.222;18.670;2023-01-13T01:52:15;8.07;;;7.22;;
67051;SDS011;53957;47.222;18.670;2023-01-13T01:55:23;11.75;;;8.07;;
67051;SDS011;53957;47.222;18.670;2023-01-13T01:58:35;10.05;;;7.30;;
67051;SDS011;53957;47.222;18.670;2023-01-13T02:01:46;10.38;;;8.82;;
67051;SDS011;53957;47.222;18.670;2023-01-13T02:04:50;12.05;;;8.30;;
67051;SDS011;53957;47.222;18.670;2023-01-13T02:07:56;10.73;;;7.75;;
67051;SDS011;53957;47.222;18.670;2023-01-13T02:11:01;10.25;;;7.97;;
67051;SDS011;53957;47.222;18.670;2023-01-13T02:14:03;12.13;;;7.93;;
67051;SDS011;53957;47.222;18.670;2023-01-13T02:20:52;11.73;;;8.07;;
67051;SDS011;53957;47.222;18.670;2023-01-13T02:31:19;11.93;;;8.82;;
67051;SDS011;53957;47.222;18.670;2023-01-13T02:34:42;12.35;;;8.63;;
67051;SDS011;53957;47.222;18.670;2023-01-13T02:37:55;14.63;;;8.30;;
67051;SDS011;53957;47.222;18.670;2023-01-13T02:41:02;15.23;;;9.52;;
67051;SDS011;53957;47.222;18.670;2023-01-13T02:44:29;10.13;;;8.85;;
67051;SDS011;53957;47.222;18.670;2023-01-13T02:47:37;10.80;;;8.40;;
67051;SDS011;53957;47.222;18.670;2023-01-13T02:50:46;11.70;;;8.07;;
67051;SDS011;53957;47.222;18.670;2023-01-13T02:54:08;12.82;;;9.20;;
67051;SDS011;53957;47.222;18.670;2023-01-13T03:00:18;10.25;;;8.02;;
67051;SDS011;53957;47.222;18.670;2023-01-13T03:03:23;9.52;;;7.95;;
67051;SDS011;53957;47.222;18.670;2023-01-13T03:09:54;12.57;;;7.93;;
67051;SDS011;53957;47.222;18.670;2023-01-13T03:20:06;9.55;;;7.07;;
67051;SDS011;53957;47.222;18.670;2023-01-13T03:23:33;10.65;;;7.37;;
67051;SDS011;53957;47.222;18.670;2023-01-13T03:26:51;13.48;;;8.07;;
67051;SDS011;53957;47.222;18.670;2023-01-13T03:30:19;7.57;;;6.78;;
67051;SDS011;53957;47.222;18.670;2023-01-13T03:33:33;9.57;;;7.35;;
67051;SDS011;53957;47.222;18.670;2023-01-13T03:36:39;8.52;;;7.05;;
67051;SDS011;53957;47.222;18.670;2023-01-13T03:39:49;12.85;;;8.05;;
67051;SDS011;53957;47.222;18.670;2023-01-13T03:43:03;12.55;;;7.57;;
67051;SDS011;53957;47.222;18.670;2023-01-13T03:46:31;10.32;;;7.22;;
67051;SDS011;53957;47.222;18.670;2023-01-13T03:49:46;10.98;;;7.60;;
67051;SDS011;53957;47.222;18.670;2023-01-13T03:53:33;9.10;;;7.05;;
67051;SDS011;53957;47.222;18.670;2023-01-13T03:56:22;8.25;;;6.68;;
67051;SDS011;53957;47.222;18.670;2023-01-13T03:59:31;7.60;;;6.75;;
67051;SDS011;53957;47.222;18.670;2023-01-13T04:16:07;11.63;;;7.20;;
67051;SDS011;53957;47.222;18.670;2023-01-13T04:19:13;10.18;;;7.43;;
67051;SDS011;53957;47.222;18.670;2023-01-13T04:22:16;7.43;;;6.60;;
67051;SDS011;53957;47.222;18.670;2023-01-13T04:25:19;7.57;;;6.50;;
67051;SDS011;53957;47.222;18.670;2023-01-13T04:28:22;6.20;;;5.40;;
67051;SDS011;53957;47.222;18.670;2023-01-13T04:31:25;8.18;;;6.05;;
67051;SDS011;53957;47.222;18.670;2023-01-13T04:34:28;8.23;;;6.30;;
67051;SDS011;53957;47.222;18.670;2023-01-13T04:37:32;7.43;;;5.75;;
67051;SDS011;53957;47.222;18.670;2023-01-13T04:40:35;9.25;;;6.82;;
67051;SDS011;53957;47.222;18.670;2023-01-13T04:43:38;9.18;;;6.78;;
67051;SDS011;53957;47.222;18.670;2023-01-13T04:46:41;8.68;;;6.55;;
67051;SDS011;53957;47.222;18.670;2023-01-13T04:49:44;8.63;;;7.50;;
67051;SDS011;53957;47.222;18.670;2023-01-13T04:52:47;10.70;;;6.95;;
67051;SDS011;53957;47.222;18.670;2023-01-13T04:55:51;10.57;;;6.53;;
67051;SDS011;53957;47.222;18.670;2023-01-13T04:58:53;6.62;;;5.80;;
67051;SDS011;53957;47.222;18.670;2023-01-13T05:01:57;10.23;;;6.70;;
67051;SDS011;53957;47.222;18.670;2023-01-13T05:04:59;8.32;;;6.85;;
67051;SDS011;53957;47.222;18.670;2023-01-13T05:08:03;8.45;;;6.68;;
67051;SDS011;53957;47.222;18.670;2023-01-13T05:11:06;8.13;;;6.85;;
67051;SDS011;53957;47.222;18.670;2023-01-13T05:14:30;10.45;;;7.40;;
67051;SDS011;53957;47.222;18.670;2023-01-13T05:17:53;7.50;;;5.93;;
67051;SDS011;53957;47.222;18.670;2023-01-13T05:20:56;7.95;;;6.57;;
67051;SDS011;53957;47.222;18.670;2023-01-13T05:23:59;10.07;;;7.32;;
67051;SDS011;53957;47.222;18.670;2023-01-13T05:27:20;7.90;;;6.82;;
67051;SDS011;53957;47.222;18.670;2023-01-13T05:30:25;7.95;;;6.97;;
67051;SDS011;53957;47.222;18.670;2023-01-13T05:33:30;7.53;;;6.70;;
67051;SDS011;53957;47.222;18.670;2023-01-13T05:36:32;8.15;;;6.90;;
67051;SDS011;53957;47.222;18.670;2023-01-13T05:39:36;7.65;;;6.70;;
67051;SDS011;53957;47.222;18.670;2023-01-13T05:43:05;8.10;;;6.65;;
67051;SDS011;53957;47.222;18.670;2023-01-13T05:46:21;11.65;;;8.57;;
67051;SDS011;53957;47.222;18.670;2023-01-13T05:49:25;10.45;;;7.72;;
67051;SDS011;53957;47.222;18.670;2023-01-13T05:52:28;10.52;;;7.20;;
67051;SDS011;53957;47.222;18.670;2023-01-13T05:55:31;9.48;;;7.80;;
67051;SDS011;53957;47.222;18.670;2023-01-13T05:58:34;11.85;;;7.55;;
67051;SDS011;53957;47.222;18.670;2023-01-13T06:01:36;13.57;;;8.10;;
67051;SDS011;53957;47.222;18.670;2023-01-13T06:04:40;9.40;;;7.35;;
67051;SDS011;53957;47.222;18.670;2023-01-13T06:07:42;9.95;;;7.80;;
67051;SDS011;53957;47.222;18.670;2023-01-13T06:10:46;12.48;;;8.77;;
67051;SDS011;53957;47.222;18.670;2023-01-13T06:13:48;8.57;;;6.62;;
67051;SDS011;53957;47.222;18.670;2023-01-13T06:16:51;8.88;;;7.40;;
67051;SDS011;53957;47.222;18.670;2023-01-13T06:19:54;7.55;;;6.68;;
67051;SDS011;53957;47.222;18.670;2023-01-13T06:22:57;9.77;;;7.75;;
67051;SDS011;53957;47.222;18.670;2023-01-13T06:29:40;30.42;;;18.33;;
67051;SDS011;53957;47.222;18.670;2023-01-13T06:32:44;18.55;;;14.10;;
67051;SDS011;53957;47.222;18.670;2023-01-13T06:35:52;14.35;;;7.70;;
67051;SDS011;53957;47.222;18.670;2023-01-13T06:42:05;13.38;;;8.32;;
67051;SDS011;53957;47.222;18.670;2023-01-13T06:45:27;12.73;;;9.85;;
67051;SDS011;53957;47.222;18.670;2023-01-13T06:48:33;11.85;;;9.77;;
67051;SDS011;53957;47.222;18.670;2023-01-13T06:51:36;12.15;;;8.90;;
67051;SDS011;53957;47.222;18.670;2023-01-13T06:54:39;16.80;;;13.38;;
67051;SDS011;53957;47.222;18.670;2023-01-13T06:57:46;11.60;;;9.45;;
67051;SDS011;53957;47.222;18.670;2023-01-13T07:00:50;9.60;;;6.97;;
67051;SDS011;53957;47.222;18.670;2023-01-13T07:03:53;11.40;;;6.70;;
67051;SDS011;53957;47.222;18.670;2023-01-13T07:06:56;9.23;;;6.35;;
67051;SDS011;53957;47.222;18.670;2023-01-13T07:09:59;9.60;;;7.65;;
67051;SDS011;53957;47.222;18.670;2023-01-13T07:13:03;10.70;;;7.93;;
67051;SDS011;53957;47.222;18.670;2023-01-13T07:16:25;8.38;;;6.60;;
67051;SDS011;53957;47.222;18.670;2023-01-13T07:19:29;10.63;;;7.97;;
67051;SDS011;53957;47.222;18.670;2023-01-13T07:22:32;9.65;;;7.25;;
67051;SDS011;53957;47.222;18.670;2023-01-13T07:25:36;14.90;;;7.62;;
67051;SDS011;53957;47.222;18.670;2023-01-13T07:28:39;9.23;;;7.40;;
67051;SDS011;53957;47.222;18.670;2023-01-13T07:31:42;11.45;;;8.80;;
67051;SDS011;53957;47.222;18.670;2023-01-13T07:34:45;13.20;;;9.40;;
67051;SDS011;53957;47.222;18.670;2023-01-13T07:37:50;11.57;;;8.77;;
67051;SDS011;53957;47.222;18.670;2023-01-13T07:40:53;19.17;;;9.70;;
67051;SDS011;53957;47.222;18.670;2023-01-13T07:43:57;13.25;;;8.93;;
67051;SDS011;53957;47.222;18.670;2023-01-13T07:46:59;10.70;;;7.95;;
67051;SDS011;53957;47.222;18.670;2023-01-13T07:50:03;8.63;;;7.68;;
67051;SDS011;53957;47.222;18.670;2023-01-13T07:53:07;9.85;;;7.35;;
67051;SDS011;53957;47.222;18.670;2023-01-13T07:56:10;11.68;;;7.28;;
67051;SDS011;53957;47.222;18.670;2023-01-13T07:59:13;9.40;;;6.03;;
67051;SDS011;53957;47.222;18.670;2023-01-13T08:02:17;9.68;;;7.22;;
67051;SDS011;53957;47.222;18.670;2023-01-13T08:05:21;7.93;;;6.25;;
67051;SDS011;53957;47.222;18.670;2023-01-13T08:08:24;6.57;;;5.55;;
67051;SDS011;53957;47.222;18.670;2023-01-13T08:11:27;10.32;;;7.07;;
67051;SDS011;53957;47.222;18.670;2023-01-13T08:14:30;8.98;;;6.80;;
67051;SDS011;53957;47.222;18.670;2023-01-13T08:17:33;8.13;;;7.35;;
67051;SDS011;53957;47.222;18.670;2023-01-13T08:20:37;10.10;;;8.02;;
67051;SDS011;53957;47.222;18.670;2023-01-13T08:23:41;9.27;;;7.45;;
67051;SDS011;53957;47.222;18.670;2023-01-13T08:26:45;11.80;;;9.20;;
67051;SDS011;53957;47.222;18.670;2023-01-13T08:29:48;16.52;;;9.05;;
67051;SDS011;53957;47.222;18.670;2023-01-13T16:44:40;98.05;;;34.40;;
67051;SDS011;53957;47.222;18.670;2023-01-13T16:47:43;60.75;;;21.48;;
67051;SDS011;53957;47.222;18.670;2023-01-13T16:50:47;34.08;;;16.42;;
67051;SDS011;53957;47.222;18.670;2023-01-13T16:53:51;27.98;;;14.13;;
67051;SDS011;53957;47.222;18.670;2023-01-13T16:56:54;24.80;;;16.02;;
67051;SDS011;53957;47.222;18.670;2023-01-13T16:59:57;26.98;;;15.32;;
67051;SDS011;53957;47.222;18.670;2023-01-13T17:03:00;28.77;;;16.30;;
67051;SDS011;53957;47.222;18.670;2023-01-13T17:06:04;23.75;;;13.43;;
67051;SDS011;53957;47.222;18.670;2023-01-13T17:09:16;28.77;;;15.75;;
67051;SDS011;53957;47.222;18.670;2023-01-13T17:12:21;22.35;;;13.55;;
67051;SDS011;53957;47.222;18.670;2023-01-13T17:15:24;26.65;;;13.93;;
67051;SDS011;53957;47.222;18.670;2023-01-13T17:18:27;26.85;;;15.57;;
67051;SDS011;53957;47.222;18.670;2023-01-13T17:21:30;23.30;;;14.35;;
67051;SDS011;53957;47.222;18.670;2023-01-13T17:24:33;25.85;;;16.00;;
67051;SDS011;53957;47.222;18.670;2023-01-13T17:27:39;35.70;;;14.93;;
67051;SDS011;53957;47.222;18.670;2023-01-13T17:30:44;24.95;;;15.65;;
67051;SDS011;53957;47.222;18.670;2023-01-13T17:33:47;23.60;;;14.65;;
67051;SDS011;53957;47.222;18.670;2023-01-13T17:36:50;23.12;;;16.27;;
67051;SDS011;53957;47.222;18.670;2023-01-13T17:39:56;23.60;;;14.45;;
67051;SDS011;53957;47.222;18.670;2023-01-13T17:42:59;25.65;;;15.52;;
67051;SDS011;53957;47.222;18.670;2023-01-13T17:46:05;32.25;;;18.65;;
67051;SDS011;53957;47.222;18.670;2023-01-13T17:49:14;41.97;;;21.45;;
67051;SDS011;53957;47.222;18.670;2023-01-13T17:52:19;39.13;;;22.13;;
67051;SDS011;53957;47.222;18.670;2023-01-13T17:55:22;31.92;;;18.52;;
67051;SDS011;53957;47.222;18.670;2023-01-13T17:58:24;33.03;;;18.95;;
67051;SDS011;53957;47.222;18.670;2023-01-13T18:01:28;32.45;;;19.25;;
67051;SDS011;53957;47.222;18.670;2023-01-13T18:04:34;34.25;;;19.08;;
67051;SDS011;53957;47.222;18.670;2023-01-13T18:07:37;31.75;;;19.52;;
67051;SDS011;53957;47.222;18.670;2023-01-13T18:10:40;32.75;;;18.62;;
67051;SDS011;53957;47.222;18.670;2023-01-13T18:13:50;26.10;;;18.12;;
67051;SDS011;53957;47.222;18.670;2023-01-13T18:16:56;27.23;;;17.77;;
67051;SDS011;53957;47.222;18.670;2023-01-13T18:19:59;28.48;;;18.00;;
67051;SDS011;53957;47.222;18.670;2023-01-13T18:23:22;29.35;;;17.05;;
67051;SDS011;53957;47.222;18.670;2023-01-13T18:26:43;45.35;;;23.02;;
67051;SDS011;53957;47.222;18.670;2023-01-13T18:30:09;40.92;;;22.20;;
67051;SDS011;53957;47.222;18.670;2023-01-13T18:33:13;34.60;;;19.75;;
67051;SDS011;53957;47.222;18.670;2023-01-13T18:36:16;31.87;;;21.02;;
67051;SDS011;53957;47.222;18.670;2023-01-13T18:39:19;32.90;;;20.50;;
67051;SDS011;53957;47.222;18.670;2023-01-13T18:42:23;31.95;;;20.55;;
67051;SDS011;53957;47.222;18.670;2023-01-13T18:45:48;37.20;;;19.77;;
67051;SDS011;53957;47.222;18.670;2023-01-13T18:48:52;36.90;;;19.67;;
67051;SDS011;53957;47.222;18.670;2023-01-13T18:51:55;31.35;;;19.50;;
67051;SDS011;53957;47.222;18.670;2023-01-13T18:54:58;43.92;;;26.42;;
67051;SDS011;53957;47.222;18.670;2023-01-13T18:58:00;42.72;;;26.27;;
67051;SDS011;53957;47.222;18.670;2023-01-13T19:01:04;58.95;;;27.33;;
67051;SDS011;53957;47.222;18.670;2023-01-13T19:04:09;46.03;;;26.10;;
67051;SDS011;53957;47.222;18.670;2023-01-13T19:07:17;45.35;;;26.20;;
67051;SDS011;53957;47.222;18.670;2023-01-13T19:10:26;29.40;;;18.52;;
67051;SDS011;53957;47.222;18.670;2023-01-13T19:13:33;34.25;;;20.12;;
67051;SDS011;53957;47.222;18.670;2023-01-13T19:16:37;23.60;;;15.23;;
67051;SDS011;53957;47.222;18.670;2023-01-13T19:19:41;28.15;;;17.12;;
67051;SDS011;53957;47.222;18.670;2023-01-13T19:22:45;23.05;;;15.50;;
67051;SDS011;53957;47.222;18.670;2023-01-13T19:26:06;28.90;;;15.38;;
67051;SDS011;53957;47.222;18.670;2023-01-13T19:29:10;33.05;;;16.92;;
67051;SDS011;53957;47.222;18.670;2023-01-13T19:32:14;30.45;;;16.17;;
67051;SDS011;53957;47.222;18.670;2023-01-13T19:35:18;31.73;;;16.48;;
67051;SDS011;53957;47.222;18.670;2023-01-13T19:38:22;38.40;;;19.70;;
67051;SDS011;53957;47.222;18.670;2023-01-13T19:41:26;43.65;;;24.50;;
67051;SDS011;53957;47.222;18.670;2023-01-13T19:44:48;43.33;;;22.48;;
67051;SDS011;53957;47.222;18.670;2023-01-13T19:48:11;42.47;;;23.35;;
67051;SDS011;53957;47.222;18.670;2023-01-13T19:51:17;44.47;;;24.37;;
67051;SDS011;53957;47.222;18.670;2023-01-13T19:54:21;43.60;;;23.98;;
67051;SDS011;53957;47.222;18.670;2023-01-13T19:57:24;41.20;;;25.08;;
67051;SDS011;53957;47.222;18.670;2023-01-13T20:00:29;39.88;;;23.60;;
67051;SDS011;53957;47.222;18.670;2023-01-13T20:03:32;42.45;;;24.08;;
67051;SDS011;53957;47.222;18.670;2023-01-13T20:06:39;39.90;;;21.95;;
67051;SDS011;53957;47.222;18.670;2023-01-13T20:09:43;54.08;;;26.67;;
67051;SDS011;53957;47.222;18.670;2023-01-13T20:12:48;50.83;;;23.70;;
67051;SDS011;53957;47.222;18.670;2023-01-13T20:15:52;39.05;;;20.25;;
67051;SDS011;53957;47.222;18.670;2023-01-13T20:18:55;32.40;;;16.15;;
67051;SDS011;53957;47.222;18.670;2023-01-13T20:21:58;32.78;;;16.60;;
67051;SDS011;53957;47.222;18.670;2023-01-13T20:25:02;30.10;;;16.80;;
67051;SDS011;53957;47.222;18.670;2023-01-13T20:28:06;30.90;;;15.57;;
67051;SDS011;53957;47.222;18.670;2023-01-13T20:31:10;31.30;;;17.55;;
67051;SDS011;53957;47.222;18.670;2023-01-13T20:34:15;40.33;;;22.13;;
67051;SDS011;53957;47.222;18.670;2023-01-13T20:37:21;34.85;;;19.60;;
67051;SDS011;53957;47.222;18.670;2023-01-13T20:40:25;42.90;;;21.23;;
67051;SDS011;53957;47.222;18.670;2023-01-13T20:43:27;36.05;;;19.45;;
67051;SDS011;53957;47.222;18.670;2023-01-13T20:46:31;30.55;;;16.95;;
67051;SDS011;53957;47.222;18.670;2023-01-13T20:49:34;35.70;;;18.52;;
67051;SDS011;53957;47.222;18.670;2023-01-13T20:52:40;35.10;;;18.20;;
67051;SDS011;53957;47.222;18.670;2023-01-13T20:55:44;32.25;;;19.35;;
67051;SDS011;53957;47.222;18.670;2023-01-13T21:02:17;37.65;;;20.95;;
67051;SDS011;53957;47.222;18.670;2023-01-13T21:05:55;36.42;;;20.10;;
67051;SDS011;53957;47.222;18.670;2023-01-13T21:09:00;32.80;;;18.62;;
67051;SDS011;53957;47.222;18.670;2023-01-13T21:12:03;33.83;;;18.40;;
67051;SDS011;53957;47.222;18.670;2023-01-13T21:15:47;29.42;;;17.42;;
67051;SDS011;53957;47.222;18.670;2023-01-13T21:18:50;18.87;;;13.25;;
67051;SDS011;53957;47.222;18.670;2023-01-13T21:22:09;25.50;;;13.48;;
67051;SDS011;53957;47.222;18.670;2023-01-13T21:25:43;27.83;;;16.37;;
67051;SDS011;53957;47.222;18.670;2023-01-13T21:36:38;30.52;;;16.10;;
67051;SDS011;53957;47.222;18.670;2023-01-13T21:40:08;34.28;;;20.60;;
67051;SDS011;53957;47.222;18.670;2023-01-13T21:43:16;28.85;;;18.87;;
67051;SDS011;53957;47.222;18.670;2023-01-13T21:54:45;32.85;;;20.25;;
67051;SDS011;53957;47.222;18.670;2023-01-13T21:58:11;36.15;;;19.20;;
67051;SDS011;53957;47.222;18.670;2023-01-13T22:01:46;36.35;;;19.50;;
67051;SDS011;53957;47.222;18.670;2023-01-13T22:05:27;31.45;;;18.50;;
67051;SDS011;53957;47.222;18.670;2023-01-13T22:08:53;32.88;;;19.58;;
67051;SDS011;53957;47.222;18.670;2023-01-13T22:12:16;34.42;;;19.67;;
67051;SDS011;53957;47.222;18.670;2023-01-13T22:15:25;36.55;;;18.58;;
67051;SDS011;53957;47.222;18.670;2023-01-13T22:18:31;31.37;;;18.37;;
67051;SDS011;53957;47.222;18.670;2023-01-13T22:21:55;30.70;;;17.83;;
67051;SDS011;53957;47.222;18.670;2023-01-13T22:24:58;27.35;;;17.33;;
67051;SDS011;53957;47.222;18.670;2023-01-13T22:28:21;32.42;;;19.77;;
67051;SDS011;53957;47.222;18.670;2023-01-13T22:31:46;36.42;;;20.40;;
67051;SDS011;53957;47.222;18.670;2023-01-13T22:34:51;34.65;;;18.87;;
67051;SDS011;53957;47.222;18.670;2023-01-13T22:38:13;27.95;;;17.58;;
67051;SDS011;53957;47.222;18.670;2023-01-13T22:42:08;35.22;;;20.70;;
67051;SDS011;53957;47.222;18.670;2023-01-13T22:45:32;37.53;;;20.98;;
67051;SDS011;53957;47.222;18.670;2023-01-13T22:49:31;28.08;;;17.17;;
67051;SDS011;53957;47.222;18.670;2023-01-13T22:53:15;27.75;;;18.20;;
67051;SDS011;53957;47.222;18.670;2023-01-13T22:56:58;40.47;;;21.62;;
67051;SDS011;53957;47.222;18.670;2023-01-13T23:00:40;43.22;;;23.30;;
67051;SDS011;53957;47.222;18.670;2023-01-13T23:04:03;38.53;;;22.52;;
67051;SDS011;53957;47.222;18.670;2023-01-13T23:07:27;38.42;;;21.10;;
67051;SDS011;53957;47.222;18.670;2023-01-13T23:11:16;30.90;;;18.73;;
67051;SDS011;53957;47.222;18.670;2023-01-13T23:14:52;29.35;;;18.73;;
67051;SDS011;53957;47.222;18.670;2023-01-13T23:18:26;34.38;;;19.85;;
67051;SDS011;53957;47.222;18.670;2023-01-13T23:22:29;38.65;;;18.20;;
67051;SDS011;53957;47.222;18.670;2023-01-13T23:26:12;38.42;;;19.67;;
67051;SDS011;53957;47.222;18.670;2023-01-13T23:29:39;32.38;;;18.52;;
67051;SDS011;53957;47.222;18.670;2023-01-13T23:33:13;33.55;;;20.67;;
67051;SDS011;53957;47.222;18.670;2023-01-13T23:36:34;36.75;;;20.70;;
67051;SDS011;53957;47.222;18.670;2023-01-13T23:40:02;35.03;;;18.58;;
67051;SDS011;53957;47.222;18.670;2023-01-13T23:43:08;32.88;;;19.02;;
67051;SDS011;53957;47.222;18.670;2023-01-13T23:46:45;34.53;;;19.77;;
67051;SDS011;53957;47.222;18.670;2023-01-13T23:50:27;31.55;;;17.77;;
67051;SDS011;53957;47.222;18.670;2023-01-13T23:54:00;36.42;;;18.95;;
67051;SDS011;53957;47.222;18.670;2023-01-13T23:57:09;34.92;;;18.80;;
